createdAt,value
2022-08-21T00:01:55.367Z,20.94
2022-08-21T00:04:29.459Z,20.79
2022-08-21T00:06:59.597Z,21.08
2022-08-21T00:09:27.182Z,20.89
2022-08-21T00:11:54.537Z,20.76
2022-08-21T00:14:22.145Z,20.84
2022-08-21T00:16:49.480Z,20.91
2022-08-21T00:19:17.119Z,20.82
2022-08-21T00:21:44.772Z,20.80
2022-08-21T00:24:13.121Z,20.66
2022-08-21T00:26:40.496Z,20.58
2022-08-21T00:29:07.999Z,20.67
2022-08-21T00:31:35.340Z,20.66
2022-08-21T00:34:03.358Z,20.66
2022-08-21T00:36:31.167Z,20.47
2022-08-21T00:38:58.664Z,20.61
2022-08-21T00:41:37.346Z,20.61
2022-08-21T00:44:14.764Z,20.44
2022-08-21T00:46:44.194Z,20.56
2022-08-21T00:49:14.071Z,20.55
2022-08-21T00:51:59.105Z,20.47
2022-08-21T00:54:30.720Z,20.50
2022-08-21T00:57:08.498Z,20.43
2022-08-21T00:59:41.199Z,20.47
2022-08-21T01:02:10.986Z,20.47
2022-08-21T01:04:38.508Z,20.53
2022-08-21T01:07:06.452Z,20.52
2022-08-21T01:09:34.165Z,20.45
2022-08-21T01:12:01.945Z,20.53
2022-08-21T01:14:29.669Z,20.48
2022-08-21T01:17:00.133Z,20.39
2022-08-21T01:19:28.565Z,20.30
2022-08-21T01:21:56.532Z,20.40
2022-08-21T01:24:25.347Z,20.39
2022-08-21T01:26:53.556Z,20.31
2022-08-21T01:29:45.309Z,20.36
2022-08-21T01:32:18.415Z,20.28
2022-08-21T01:34:51.535Z,20.23
2022-08-21T01:37:22.554Z,20.32
2022-08-21T01:39:50.333Z,20.20
2022-08-21T01:42:18.236Z,20.27
2022-08-21T01:44:45.909Z,20.35
2022-08-21T01:47:16.508Z,20.29
2022-08-21T01:49:46.216Z,20.17
2022-08-21T01:52:13.933Z,20.09
2022-08-21T01:54:42.726Z,20.15
2022-08-21T01:57:11.288Z,20.04
2022-08-21T01:59:38.709Z,20.15
2022-08-21T02:02:06.858Z,20.17
2022-08-21T02:04:38.419Z,19.93
2022-08-21T02:07:07.103Z,20.03
2022-08-21T02:09:37.621Z,20.05
2022-08-21T02:12:08.029Z,19.94
2022-08-21T02:14:35.345Z,20.31
2022-08-21T02:17:09.501Z,19.92
2022-08-21T02:19:40.714Z,20.00
2022-08-21T02:22:13.477Z,19.89
2022-08-21T02:24:53.839Z,19.91
2022-08-21T02:27:27.431Z,19.91
2022-08-21T02:29:58.845Z,19.85
2022-08-21T02:32:27.260Z,19.91
2022-08-21T02:34:54.908Z,19.94
2022-08-21T02:37:24.016Z,19.83
2022-08-21T02:39:51.694Z,19.81
2022-08-21T02:42:19.174Z,19.75
2022-08-21T02:44:46.551Z,19.72
2022-08-21T02:47:15.280Z,19.71
2022-08-21T02:49:42.734Z,19.68
2022-08-21T02:52:10.299Z,19.71
2022-08-21T02:54:37.623Z,19.65
2022-08-21T02:57:05.067Z,19.63
2022-08-21T02:59:33.138Z,19.60
2022-08-21T03:02:00.550Z,19.64
2022-08-21T03:04:27.915Z,19.55
2022-08-21T03:06:55.232Z,19.42
2022-08-21T03:09:22.540Z,19.42
2022-08-21T03:11:49.954Z,19.57
2022-08-21T03:14:17.276Z,19.45
2022-08-21T03:16:45.404Z,19.46
2022-08-21T03:19:14.035Z,19.33
2022-08-21T03:21:41.339Z,19.41
2022-08-21T03:24:10.959Z,19.40
2022-08-21T03:26:38.636Z,19.46
2022-08-21T03:29:08.733Z,19.49
2022-08-21T03:31:36.329Z,19.40
2022-08-21T03:34:03.780Z,19.44
2022-08-21T03:36:31.137Z,19.54
2022-08-21T03:38:58.665Z,19.44
2022-08-21T03:41:25.961Z,19.45
2022-08-21T03:43:53.289Z,19.27
2022-08-21T03:46:20.595Z,19.31
2022-08-21T03:48:48.053Z,19.41
2022-08-21T03:51:16.497Z,19.38
2022-08-21T03:53:43.808Z,19.30
2022-08-21T03:56:11.204Z,19.36
2022-08-21T03:58:39.331Z,19.26
2022-08-21T04:01:07.428Z,19.25
2022-08-21T04:03:38.371Z,19.15
2022-08-21T04:06:07.049Z,19.22
2022-08-21T04:08:34.959Z,19.23
2022-08-21T04:11:02.615Z,19.23
2022-08-21T04:13:30.764Z,19.14
2022-08-21T04:15:59.559Z,19.05
2022-08-21T04:18:27.057Z,19.03
2022-08-21T04:20:57.097Z,19.14
2022-08-21T04:23:26.801Z,19.16
2022-08-21T04:25:57.569Z,18.99
2022-08-21T04:28:29.261Z,19.09
2022-08-21T04:30:59.203Z,19.10
2022-08-21T04:33:30.192Z,19.10
2022-08-21T04:35:57.514Z,19.08
2022-08-21T04:38:24.872Z,18.90
2022-08-21T04:40:53.828Z,18.82
2022-08-21T04:43:24.176Z,18.95
2022-08-21T04:45:53.381Z,19.08
2022-08-21T04:48:27.796Z,18.88
2022-08-21T04:51:20.991Z,18.99
2022-08-21T04:54:09.744Z,18.90
2022-08-21T04:57:00.441Z,18.78
2022-08-21T04:59:47.667Z,18.97
2022-08-21T05:02:15.501Z,19.05
2022-08-21T05:04:55.243Z,18.94
2022-08-21T05:07:41.902Z,18.98
2022-08-21T05:10:12.643Z,19.00
2022-08-21T05:12:43.575Z,18.82
2022-08-21T05:15:14.520Z,18.95
2022-08-21T05:17:42.878Z,18.99
2022-08-21T05:20:15.691Z,19.04
2022-08-21T05:22:43.566Z,18.97
2022-08-21T05:25:12.472Z,19.03
2022-08-21T05:27:40.640Z,18.96
2022-08-21T05:30:12.091Z,19.07
2022-08-21T05:32:39.467Z,19.00
2022-08-21T05:35:09.431Z,19.06
2022-08-21T05:37:37.097Z,19.01
2022-08-21T05:40:22.468Z,19.12
2022-08-21T05:42:56.094Z,19.00
2022-08-21T05:45:42.995Z,18.97
2022-08-21T05:48:22.093Z,19.07
2022-08-21T05:50:53.017Z,18.95
2022-08-21T05:53:24.279Z,19.06
2022-08-21T05:55:53.049Z,19.13
2022-08-21T05:58:23.882Z,19.22
2022-08-21T06:00:53.758Z,19.20
2022-08-21T06:03:33.008Z,19.19
2022-08-21T06:06:01.065Z,19.28
2022-08-21T06:08:29.504Z,19.19
2022-08-21T06:11:01.594Z,19.25
2022-08-21T06:13:29.905Z,19.22
2022-08-21T06:16:17.127Z,19.29
2022-08-21T06:18:46.490Z,19.28
2022-08-21T06:21:14.927Z,19.18
2022-08-21T06:23:43.887Z,19.24
2022-08-21T06:26:14.548Z,19.28
2022-08-21T06:28:44.250Z,19.26
2022-08-21T06:31:24.775Z,19.27
2022-08-21T06:33:53.361Z,19.33
2022-08-21T06:36:23.463Z,19.21
2022-08-21T06:38:51.966Z,19.18
2022-08-21T06:41:24.098Z,19.30
2022-08-21T06:43:55.793Z,19.35
2022-08-21T06:46:26.998Z,19.29
2022-08-21T06:48:54.658Z,19.34
2022-08-21T06:51:22.956Z,19.32
2022-08-21T06:53:50.587Z,19.31
2022-08-21T06:56:18.252Z,19.40
2022-08-21T06:58:45.857Z,19.49
2022-08-21T07:01:13.324Z,19.56
2022-08-21T07:03:44.510Z,19.54
2022-08-21T07:06:13.017Z,19.54
2022-08-21T07:08:40.789Z,19.43
2022-08-21T07:11:22.419Z,19.55
2022-08-21T07:13:53.553Z,19.65
2022-08-21T07:16:24.594Z,19.62
2022-08-21T07:18:51.913Z,19.80
2022-08-21T07:21:25.189Z,19.90
2022-08-21T07:23:53.856Z,19.91
2022-08-21T07:26:24.515Z,19.87
2022-08-21T07:28:52.700Z,19.91
2022-08-21T07:31:25.071Z,19.80
2022-08-21T07:33:53.149Z,19.90
2022-08-21T07:36:20.968Z,19.96
2022-08-21T07:38:49.043Z,20.15
2022-08-21T07:41:30.014Z,20.22
2022-08-21T07:43:59.108Z,20.25
2022-08-21T07:46:27.908Z,20.28
2022-08-21T07:48:55.752Z,20.39
2022-08-21T07:51:28.969Z,20.44
2022-08-21T07:54:00.088Z,20.52
2022-08-21T07:56:31.369Z,20.57
2022-08-21T07:58:58.841Z,20.60
2022-08-21T08:01:26.641Z,20.71
2022-08-21T08:03:54.010Z,20.63
2022-08-21T08:06:21.353Z,20.88
2022-08-21T08:08:48.773Z,20.98
2022-08-21T08:11:17.193Z,21.08
2022-08-21T08:13:52.232Z,21.14
2022-08-21T08:16:21.704Z,21.21
2022-08-21T08:18:49.081Z,21.39
2022-08-21T08:21:17.213Z,21.23
2022-08-21T08:23:46.137Z,21.39
2022-08-21T08:26:13.633Z,21.47
2022-08-21T08:28:40.984Z,21.51
2022-08-21T08:31:08.296Z,21.58
2022-08-21T08:33:35.604Z,21.32
2022-08-21T08:36:08.129Z,21.54
2022-08-21T08:38:35.960Z,21.66
2022-08-21T08:41:23.681Z,21.72
2022-08-21T08:43:59.624Z,21.90
2022-08-21T08:46:51.472Z,21.94
2022-08-21T08:49:53.225Z,21.99
2022-08-21T08:52:51.061Z,22.10
2022-08-21T08:55:37.776Z,22.13
2022-08-21T08:58:05.368Z,22.10
2022-08-21T09:00:34.192Z,22.10
2022-08-21T09:03:05.501Z,22.15
2022-08-21T09:05:54.805Z,22.33
2022-08-21T09:09:06.283Z,22.42
2022-08-21T09:12:45.609Z,22.25
2022-08-21T09:16:00.301Z,22.38
2022-08-21T09:19:24.861Z,22.58
2022-08-21T09:22:26.160Z,22.67
2022-08-21T09:25:33.480Z,22.52
2022-08-21T09:28:00.928Z,22.73
2022-08-21T09:30:33.701Z,22.71
2022-08-21T09:33:01.396Z,22.77
2022-08-21T09:35:28.947Z,22.90
2022-08-21T09:38:09.083Z,23.01
2022-08-21T09:40:48.524Z,22.99
2022-08-21T09:43:25.843Z,23.15
2022-08-21T09:46:23.743Z,23.28
2022-08-21T09:48:58.207Z,23.16
2022-08-21T09:51:37.168Z,23.32
2022-08-21T09:54:10.070Z,23.50
2022-08-21T09:57:34.556Z,23.67
2022-08-21T10:00:32.173Z,23.83
2022-08-21T10:03:28.969Z,23.91
2022-08-21T10:06:09.350Z,23.88
2022-08-21T10:08:41.851Z,24.13
2022-08-21T10:11:18.195Z,24.07
2022-08-21T10:14:33.256Z,24.00
2022-08-21T10:18:10.688Z,24.30
2022-08-21T10:21:12.037Z,24.51
2022-08-21T10:24:31.668Z,24.64
2022-08-21T10:27:56.081Z,24.58
2022-08-21T10:31:08.960Z,24.21
2022-08-21T10:34:29.075Z,24.37
2022-08-21T10:37:26.761Z,24.56
2022-08-21T10:40:46.227Z,24.79
2022-08-21T10:43:46.998Z,25.18
2022-08-21T10:47:30.512Z,25.08
2022-08-21T10:50:17.385Z,25.16
2022-08-21T10:53:54.168Z,25.03
2022-08-21T10:56:29.989Z,25.30
2022-08-21T10:59:56.587Z,25.54
2022-08-21T11:02:43.580Z,25.54
2022-08-21T11:05:59.079Z,25.43
2022-08-21T11:08:47.794Z,25.23
2022-08-21T11:11:59.546Z,25.56
2022-08-21T11:15:28.922Z,25.13
2022-08-21T11:18:28.107Z,26.13
2022-08-21T11:21:34.563Z,26.28
2022-08-21T11:25:01.551Z,26.07
2022-08-21T11:28:17.588Z,26.71
2022-08-21T11:31:18.268Z,26.16
2022-08-21T11:34:20.911Z,25.74
2022-08-21T11:37:59.386Z,26.14
2022-08-21T11:41:43.024Z,26.23
2022-08-21T11:44:41.161Z,26.02
2022-08-21T11:48:13.325Z,26.02
2022-08-21T11:50:45.562Z,25.94
2022-08-21T11:53:40.154Z,25.83
2022-08-21T11:56:23.660Z,25.72
2022-08-21T11:59:01.594Z,25.57
2022-08-21T12:01:41.687Z,25.71
2022-08-21T12:04:30.736Z,25.61
2022-08-21T12:07:29.507Z,25.86
2022-08-21T12:10:00.551Z,26.08
2022-08-21T12:12:40.221Z,26.24
2022-08-21T12:15:28.536Z,26.87
2022-08-21T12:18:34.105Z,26.94
2022-08-21T12:21:23.643Z,26.74
2022-08-21T12:24:15.806Z,27.02
2022-08-21T12:27:15.140Z,27.41
2022-08-21T12:30:19.913Z,27.65
2022-08-21T12:33:33.130Z,27.95
2022-08-21T12:36:46.572Z,28.40
2022-08-21T12:39:26.231Z,27.85
2022-08-21T12:42:25.108Z,27.88
2022-08-21T12:45:18.471Z,28.25
2022-08-21T12:48:00.859Z,28.71
2022-08-21T12:51:16.252Z,28.82
2022-08-21T12:53:58.896Z,28.81
2022-08-21T12:56:33.233Z,29.20
2022-08-21T12:59:13.131Z,29.24
2022-08-21T13:01:52.522Z,29.37
2022-08-21T13:04:41.736Z,29.55
2022-08-21T13:07:17.063Z,29.95
2022-08-21T13:10:08.351Z,30.08
2022-08-21T13:12:36.963Z,29.51
2022-08-21T13:15:08.951Z,29.23
2022-08-21T13:17:50.667Z,29.54
2022-08-21T13:20:29.277Z,29.84
2022-08-21T13:22:56.732Z,30.05
2022-08-21T13:25:36.547Z,30.51
2022-08-21T13:28:15.811Z,30.37
2022-08-21T13:30:56.812Z,30.04
2022-08-21T13:33:35.197Z,30.54
2022-08-21T13:36:27.072Z,30.56
2022-08-21T13:38:55.652Z,30.72
2022-08-21T13:41:46.915Z,31.13
2022-08-21T13:44:36.815Z,31.15
2022-08-21T13:47:07.301Z,31.33
2022-08-21T13:49:47.087Z,31.35
2022-08-21T13:52:27.703Z,31.44
2022-08-21T13:55:08.873Z,31.33
2022-08-21T13:57:38.404Z,31.51
2022-08-21T14:00:28.692Z,30.69
2022-08-21T14:03:12.497Z,30.38
2022-08-21T14:05:47.246Z,30.63
2022-08-21T14:08:38.393Z,30.87
2022-08-21T14:11:10.571Z,31.11
2022-08-21T14:13:58.814Z,31.24
2022-08-21T14:16:47.481Z,30.82
2022-08-21T14:19:41.897Z,31.19
2022-08-21T14:22:44.470Z,31.44
2022-08-21T14:25:20.941Z,31.59
2022-08-21T14:28:19.563Z,31.48
2022-08-21T14:30:51.375Z,31.81
2022-08-21T14:33:32.796Z,31.61
2022-08-21T14:36:02.795Z,31.65
2022-08-21T14:38:30.772Z,31.60
2022-08-21T14:41:22.586Z,31.43
2022-08-21T14:43:59.793Z,31.81
2022-08-21T14:46:35.113Z,31.99
2022-08-21T14:49:04.688Z,31.65
2022-08-21T14:51:32.257Z,31.89
2022-08-21T14:53:59.669Z,32.10
2022-08-21T14:56:27.457Z,32.03
2022-08-21T14:59:06.820Z,32.02
2022-08-21T15:01:39.668Z,31.79
2022-08-21T15:04:07.818Z,31.77
2022-08-21T15:06:35.217Z,31.84
2022-08-21T15:09:04.985Z,31.62
2022-08-21T15:11:42.540Z,31.43
2022-08-21T15:14:22.708Z,31.79
2022-08-21T15:16:51.420Z,31.74
2022-08-21T15:19:19.710Z,31.37
2022-08-21T15:21:47.347Z,31.67
2022-08-21T15:24:14.824Z,31.40
2022-08-21T15:26:42.567Z,31.34
2022-08-21T15:29:10.281Z,31.09
2022-08-21T15:31:50.354Z,31.09
2022-08-21T15:34:18.332Z,31.01
2022-08-21T15:36:45.811Z,30.95
2022-08-21T15:39:14.198Z,30.90
2022-08-21T15:41:41.768Z,31.20
2022-08-21T15:44:13.340Z,31.17
2022-08-21T15:46:42.255Z,31.33
2022-08-21T15:49:09.799Z,31.18
2022-08-21T15:51:38.339Z,31.01
2022-08-21T15:54:10.993Z,30.92
2022-08-21T15:56:43.372Z,30.49
2022-08-21T15:59:22.765Z,30.64
2022-08-21T16:01:53.791Z,30.56
2022-08-21T16:04:28.411Z,30.75
2022-08-21T16:07:01.000Z,30.95
2022-08-21T16:09:29.301Z,30.82
2022-08-21T16:11:56.803Z,30.65
2022-08-21T16:14:24.176Z,30.57
2022-08-21T16:16:52.668Z,30.79
2022-08-21T16:19:21.691Z,30.41
2022-08-21T16:21:49.011Z,30.35
2022-08-21T16:24:16.360Z,30.14
2022-08-21T16:26:43.855Z,30.04
2022-08-21T16:29:11.629Z,29.82
2022-08-21T16:31:39.838Z,29.61
2022-08-21T16:34:07.577Z,29.76
2022-08-21T16:36:34.896Z,29.74
2022-08-21T16:39:02.608Z,29.83
2022-08-21T16:41:35.307Z,29.51
2022-08-21T16:44:05.785Z,29.68
2022-08-21T16:46:40.936Z,29.57
2022-08-21T16:49:10.067Z,29.55
2022-08-21T16:51:38.281Z,29.30
2022-08-21T16:54:05.758Z,29.13
2022-08-21T16:56:33.780Z,29.15
2022-08-21T16:59:01.980Z,29.00
2022-08-21T17:01:35.010Z,29.16
2022-08-21T17:04:03.313Z,29.16
2022-08-21T17:06:31.264Z,29.01
2022-08-21T17:09:01.122Z,28.96
2022-08-21T17:11:45.512Z,28.53
2022-08-21T17:14:22.334Z,28.78
2022-08-21T17:16:56.718Z,28.50
2022-08-21T17:19:24.444Z,28.45
2022-08-21T17:21:51.815Z,28.63
2022-08-21T17:24:19.140Z,28.37
2022-08-21T17:26:47.825Z,28.46
2022-08-21T17:29:16.098Z,28.20
2022-08-21T17:31:44.572Z,28.33
2022-08-21T17:34:13.000Z,28.27
2022-08-21T17:36:40.319Z,28.25
2022-08-21T17:39:07.856Z,28.25
2022-08-21T17:41:35.578Z,28.12
2022-08-21T17:44:11.703Z,28.17
2022-08-21T17:46:42.693Z,28.04
2022-08-21T17:49:11.717Z,27.87
2022-08-21T17:51:43.496Z,27.87
2022-08-21T17:54:10.967Z,27.87
2022-08-21T17:56:42.255Z,27.87
2022-08-21T17:59:10.626Z,27.70
2022-08-21T18:01:46.797Z,27.54
2022-08-21T18:04:15.499Z,27.52
2022-08-21T18:06:44.792Z,27.40
2022-08-21T18:09:13.560Z,27.36
2022-08-21T18:11:43.679Z,27.42
2022-08-21T18:14:12.181Z,27.29
2022-08-21T18:16:39.757Z,27.24
2022-08-21T18:19:16.285Z,27.14
2022-08-21T18:21:44.329Z,26.90
2022-08-21T18:24:11.729Z,26.54
2022-08-21T18:26:41.750Z,26.70
2022-08-21T18:29:16.831Z,26.42
2022-08-21T18:31:46.539Z,26.47
2022-08-21T18:34:43.043Z,26.11
2022-08-21T18:37:10.570Z,26.18
2022-08-21T18:39:38.235Z,26.24
2022-08-21T18:42:15.237Z,26.13
2022-08-21T18:44:49.094Z,26.12
2022-08-21T18:47:33.583Z,26.28
2022-08-21T18:50:01.422Z,26.18
2022-08-21T18:52:30.665Z,26.18
2022-08-21T18:54:58.118Z,26.00
2022-08-21T18:57:34.118Z,26.05
2022-08-21T19:00:08.893Z,25.98
2022-08-21T19:02:36.297Z,25.83
2022-08-21T19:05:06.304Z,25.82
2022-08-21T19:07:34.129Z,25.61
2022-08-21T19:10:27.715Z,25.62
2022-08-21T19:12:50.262Z,25.62
2022-08-21T19:15:21.946Z,25.69
2022-08-21T19:17:53.344Z,25.68
2022-08-21T19:20:32.691Z,25.66
2022-08-21T19:23:01.356Z,25.79
2022-08-21T19:25:33.322Z,25.53
2022-08-21T19:28:10.980Z,25.53
2022-08-21T19:31:23.667Z,25.57
2022-08-21T19:34:08.437Z,25.19
2022-08-21T19:36:35.909Z,25.08
2022-08-21T19:39:08.203Z,25.14
2022-08-21T19:41:42.705Z,24.95
2022-08-21T19:44:20.767Z,25.11
2022-08-21T19:46:51.130Z,24.97
2022-08-21T19:49:29.062Z,24.99
2022-08-21T19:52:13.019Z,24.82
2022-08-21T19:54:46.362Z,24.72
2022-08-21T19:57:15.008Z,24.73
2022-08-21T19:59:44.204Z,24.51
2022-08-21T20:02:17.333Z,24.46
2022-08-21T20:04:53.742Z,24.41
2022-08-21T20:07:26.925Z,24.22
2022-08-21T20:09:56.569Z,24.36
2022-08-21T20:12:25.101Z,24.40
2022-08-21T20:14:53.139Z,24.04
2022-08-21T20:17:21.218Z,24.06
2022-08-21T20:19:54.400Z,24.32
2022-08-21T20:22:24.093Z,24.21
2022-08-21T20:24:52.715Z,24.07
2022-08-21T20:30:16.356Z,23.97
2022-08-21T20:32:50.381Z,24.03
2022-08-21T20:35:18.752Z,23.77
2022-08-21T20:37:46.768Z,23.89
2022-08-21T20:40:32.792Z,23.77
2022-08-21T20:43:02.574Z,23.66
2022-08-21T20:45:35.372Z,23.88
2022-08-21T20:48:24.135Z,23.80
2022-08-21T20:51:24.195Z,23.48
2022-08-21T20:54:23.797Z,23.50
2022-08-21T20:57:22.760Z,23.68
2022-08-21T21:00:14.646Z,23.58
2022-08-21T21:04:05.062Z,23.53
2022-08-21T21:06:39.051Z,23.38
2022-08-21T21:09:40.168Z,23.29
2022-08-21T21:12:31.253Z,23.31
2022-08-21T21:15:14.084Z,23.33
2022-08-21T21:18:29.601Z,23.31
2022-08-21T21:21:51.691Z,23.28
2022-08-21T21:25:11.372Z,23.15
2022-08-21T21:28:08.472Z,23.23
2022-08-21T21:30:51.967Z,23.23
2022-08-21T21:33:25.624Z,23.20
2022-08-21T21:36:28.431Z,23.22
2022-08-21T21:39:52.682Z,23.22
2022-08-21T21:43:16.461Z,23.22
2022-08-21T21:46:39.208Z,23.20
2022-08-21T21:50:29.748Z,23.22
2022-08-21T21:53:12.587Z,23.00
2022-08-21T21:56:40.456Z,23.30
2022-08-21T21:59:58.961Z,23.13
2022-08-21T22:03:25.568Z,23.14
2022-08-21T22:06:13.037Z,22.65
2022-08-21T22:09:03.534Z,23.03
2022-08-21T22:12:03.633Z,22.98
2022-08-21T22:14:40.863Z,22.92
2022-08-21T22:17:33.325Z,22.96
2022-08-21T22:20:40.617Z,22.99
2022-08-21T22:23:18.812Z,22.98
2022-08-21T22:25:55.793Z,22.92
2022-08-21T22:28:27.069Z,22.84
2022-08-21T22:31:18.122Z,22.57
2022-08-21T22:34:19.461Z,22.89
2022-08-21T22:37:01.317Z,22.71
2022-08-21T22:39:41.199Z,22.77
2022-08-21T22:42:27.418Z,22.71
2022-08-21T22:45:12.080Z,22.66
2022-08-21T22:47:47.399Z,22.55
2022-08-21T22:50:26.961Z,22.65
2022-08-21T22:53:05.972Z,22.81
2022-08-21T22:55:54.888Z,22.68
2022-08-21T22:58:58.800Z,22.66
2022-08-21T23:01:28.854Z,22.80
2022-08-21T23:04:12.212Z,22.64
2022-08-21T23:06:59.084Z,22.63
2022-08-21T23:09:48.329Z,22.56
2022-08-21T23:12:43.765Z,22.69
2022-08-21T23:15:18.231Z,22.60
2022-08-21T23:18:26.383Z,22.71
2022-08-21T23:21:57.885Z,22.51
2022-08-21T23:25:29.107Z,22.65
2022-08-21T23:28:54.440Z,22.46
2022-08-21T23:32:24.919Z,22.56
2022-08-21T23:36:22.358Z,22.63
2022-08-21T23:39:28.735Z,22.37
2022-08-21T23:43:09.280Z,22.56
2022-08-21T23:46:45.457Z,22.57
2022-08-21T23:50:33.986Z,22.40
2022-08-21T23:53:28.210Z,22.37
2022-08-21T23:57:02.639Z,22.33
